Time;durP1;ratioP1;P1;durP2;ratioP2;P2;SDS_P1;SDS_P2;PMS_P1;PMS_P2;Temp;Humidity;BMP_temperature;BMP_pressure;BME280_temperature;BME280_humidity;BME280_pressure;Samples;Min_cycle;Max_cycle;Signal;HPM_P1;HPM_P2
2023/05/04 00:00:47;;;;;;;6.53;1.98;;;;;;;10.68;65.71;100304.50;12205504;19;19999;-85
2023/05/04 00:04:52;;;;;;;2.92;1.67;;;;;;;10.79;63.92;100299.22;12183613;19;20033;-84
2023/05/04 00:08:54;;;;;;;4.97;2.05;;;;;;;10.84;64.52;100294.66;12201129;19;20002;-84
2023/05/04 00:12:56;;;;;;;3.50;1.67;;;;;;;10.86;64.38;100299.94;12203604;19;20010;-85
2023/05/04 00:16:58;;;;;;;3.45;2.30;;;;;;;10.84;63.27;100285.56;12181325;19;20007;-86
2023/05/04 00:21:00;;;;;;;2.88;1.70;;;;;;;10.92;63.16;100291.56;12204115;19;20014;-85
2023/05/04 00:25:02;;;;;;;4.05;1.90;;;;;;;10.96;63.02;100283.63;12200129;19;20015;-88
2023/05/04 00:29:04;;;;;;;4.18;2.00;;;;;;;10.89;64.13;100282.94;12174496;19;20010;-84
2023/05/04 00:33:06;;;;;;;4.87;1.77;;;;;;;10.86;64.08;100278.72;12202834;19;20011;-84
2023/05/04 00:37:11;;;;;;;4.88;2.00;;;;;;;10.81;64.60;100270.31;12201557;19;20007;-84
2023/05/04 00:41:13;;;;;;;3.83;1.88;;;;;;;10.73;64.58;100267.94;12180171;19;21184;-84
2023/05/04 00:45:15;;;;;;;4.77;2.07;;;;;;;10.68;65.61;100270.59;12204618;19;20010;-84
2023/05/04 00:49:17;;;;;;;3.88;2.20;;;;;;;10.67;64.89;100266.13;12200544;19;20031;-85
2023/05/04 00:53:19;;;;;;;4.23;1.90;;;;;;;10.66;66.14;100267.22;12182244;19;20020;-84
2023/05/04 00:57:21;;;;;;;5.22;2.10;;;;;;;10.58;66.31;100254.63;12199583;19;20239;-83
2023/05/04 01:01:24;;;;;;;4.72;2.10;;;;;;;10.54;66.73;100258.94;12201155;19;20003;-84
2023/05/04 01:05:33;;;;;;;3.97;2.15;;;;;;;10.53;66.84;100261.91;12180559;19;20007;-85
2023/05/04 01:09:50;;;;;;;4.50;3.00;;;;;;;10.54;66.90;100258.13;12192329;19;20033;-83
2023/05/04 01:13:53;;;;;;;3.67;2.30;;;;;;;10.57;66.25;100254.88;12175192;19;20087;-84
2023/05/04 01:17:55;;;;;;;4.93;1.92;;;;;;;10.61;66.07;100251.38;12194940;19;20007;-84
2023/05/04 01:21:57;;;;;;;3.63;1.92;;;;;;;10.61;66.27;100245.03;12194101;19;20064;-84
2023/05/04 01:26:30;;;;;;;4.72;2.55;;;;;;;10.57;67.76;100250.19;12174733;19;20030;-84
2023/05/04 01:30:42;;;;;;;4.22;2.38;;;;;;;10.55;67.30;100244.06;12193994;19;20017;-83
2023/05/04 01:34:44;;;;;;;3.95;2.65;;;;;;;10.51;67.65;100248.41;12174190;19;20003;-84
2023/05/04 01:38:47;;;;;;;4.55;2.13;;;;;;;10.46;67.76;100249.09;12192068;19;20027;-84
2023/05/04 01:42:49;;;;;;;4.38;2.72;;;;;;;10.45;67.87;100247.44;12196517;19;20007;-84
2023/05/04 01:46:51;;;;;;;7.00;2.33;;;;;;;10.41;68.55;100250.88;12170970;19;20111;-85
2023/05/04 01:50:53;;;;;;;7.78;2.38;;;;;;;10.36;68.87;100248.88;12192146;19;20056;-85
2023/05/04 01:54:54;;;;;;;6.20;2.33;;;;;;;10.32;70.08;100258.69;12195036;19;20018;-85
2023/05/04 01:58:56;;;;;;;5.15;2.53;;;;;;;10.28;69.81;100257.47;12173084;19;20011;-84
2023/05/04 02:02:58;;;;;;;5.40;2.33;;;;;;;10.25;70.29;100250.47;12195222;19;20641;-85
2023/05/04 02:07:00;;;;;;;5.25;2.47;;;;;;;10.17;71.35;100245.34;12191760;19;20006;-85
2023/05/04 02:11:02;;;;;;;6.40;2.30;;;;;;;10.17;70.85;100250.84;12169719;19;20079;-85
2023/05/04 02:15:04;;;;;;;5.07;2.38;;;;;;;10.19;70.27;100250.59;12189974;19;20011;-85
2023/05/04 02:19:06;;;;;;;5.65;2.60;;;;;;;10.24;69.11;100256.25;12198301;19;20014;-85
2023/05/04 02:23:08;;;;;;;5.18;2.38;;;;;;;10.30;68.81;100249.81;12185420;19;20022;-85
2023/05/04 02:27:10;;;;;;;5.05;2.67;;;;;;;10.30;68.39;100249.81;12207629;19;20090;-87
2023/05/04 02:31:12;;;;;;;4.32;2.33;;;;;;;10.30;68.34;100252.56;12206896;19;20027;-83
2023/05/04 02:35:14;;;;;;;5.57;2.38;;;;;;;10.31;68.59;100245.13;12191373;19;20022;-83
2023/05/04 02:39:16;;;;;;;6.82;2.80;;;;;;;10.27;68.43;100248.38;12212485;19;20051;-84
2023/05/04 02:43:18;;;;;;;6.40;2.35;;;;;;;10.20;69.05;100249.50;12211201;19;20039;-84
2023/05/04 02:47:19;;;;;;;4.40;2.42;;;;;;;10.07;69.62;100256.06;12185201;19;20003;-85
2023/05/04 02:51:21;;;;;;;7.22;3.30;;;;;;;9.92;70.26;100253.75;12204489;19;20042;-84
2023/05/04 02:55:23;;;;;;;4.30;2.40;;;;;;;9.78;71.67;100255.03;12207798;19;20524;-85
2023/05/04 02:59:24;;;;;;;6.97;2.75;;;;;;;9.64;73.19;100248.03;12185105;19;20390;-85
2023/05/04 03:03:26;;;;;;;5.35;2.95;;;;;;;9.51;75.54;100260.06;12206348;19;20010;-85
2023/05/04 03:07:28;;;;;;;4.13;2.75;;;;;;;9.38;77.86;100249.25;12206819;19;20035;-85
2023/05/04 03:11:30;;;;;;;4.13;2.72;;;;;;;9.23;79.38;100247.72;12181298;19;20006;-85
2023/05/04 03:15:32;;;;;;;6.15;3.28;;;;;;;9.09;79.87;100249.78;12206271;19;20011;-84
2023/05/04 03:19:34;;;;;;;4.15;2.83;;;;;;;8.94;81.93;100252.09;12180805;19;20425;-85
2023/05/04 03:23:37;;;;;;;5.80;2.72;;;;;;;8.80;81.65;100253.28;12205194;19;20078;-85
2023/05/04 03:27:41;;;;;;;8.40;2.97;;;;;;;8.67;82.16;100249.59;12202720;19;20086;-84
2023/05/04 03:31:42;;;;;;;7.40;3.30;;;;;;;8.57;83.09;100249.31;12179567;19;20030;-85
2023/05/04 03:35:47;;;;;;;5.13;3.15;;;;;;;8.49;85.27;100244.09;12203041;19;20031;-85
2023/05/04 03:39:49;;;;;;;7.35;3.53;;;;;;;8.42;86.16;100237.81;12202746;19;20471;-84
2023/05/04 03:43:51;;;;;;;5.70;3.17;;;;;;;8.28;86.15;100231.56;12183186;19;20024;-84
2023/05/04 03:47:54;;;;;;;6.30;3.30;;;;;;;8.18;86.56;100226.59;12205241;19;20007;-84
2023/05/04 03:51:56;;;;;;;5.95;3.78;;;;;;;8.11;87.26;100225.78;12202412;19;20016;-85
2023/05/04 03:55:58;;;;;;;5.63;3.03;;;;;;;8.09;88.23;100218.84;12182920;19;20078;-84
2023/05/04 04:00:00;;;;;;;6.35;3.67;;;;;;;8.04;87.89;100218.69;12203612;19;20002;-85
2023/05/04 04:04:15;;;;;;;9.25;3.53;;;;;;;8.02;89.95;100215.31;12204602;19;20007;-85
2023/05/04 04:08:17;;;;;;;8.85;3.60;;;;;;;8.11;89.04;100214.81;12180477;19;20591;-85
2023/05/04 04:12:19;;;;;;;5.30;3.30;;;;;;;8.24;89.33;100216.63;12199985;19;20006;-85
2023/05/04 04:16:21;;;;;;;8.23;3.60;;;;;;;8.46;87.82;100221.72;12203534;19;20015;-85
2023/05/04 04:20:23;;;;;;;7.63;3.67;;;;;;;8.64;87.68;100228.09;12178916;19;20721;-84
2023/05/04 04:24:26;;;;;;;7.88;3.30;;;;;;;8.90;86.00;100226.13;12201221;19;20050;-84
2023/05/04 04:28:28;;;;;;;5.00;3.20;;;;;;;9.09;85.58;100216.78;12200937;19;21516;-84
2023/05/04 04:32:30;;;;;;;5.38;3.28;;;;;;;9.29;84.77;100213.81;12179899;19;20003;-85
2023/05/04 04:36:32;;;;;;;5.88;3.13;;;;;;;9.50;83.28;100212.47;12202116;19;20006;-86
2023/05/04 04:40:37;;;;;;;7.38;3.05;;;;;;;9.77;81.85;100221.16;12175772;19;20006;-86
2023/05/04 04:44:39;;;;;;;13.52;4.20;;;;;;;10.01;79.82;100218.47;12201442;19;20011;-84
2023/05/04 04:48:41;;;;;;;7.53;3.63;;;;;;;10.17;79.12;100231.56;12200105;19;20082;-84
2023/05/04 04:52:43;;;;;;;5.63;3.05;;;;;;;10.32;77.71;100236.66;12179841;19;20003;-84
2023/05/04 04:56:46;;;;;;;8.10;3.92;;;;;;;10.43;77.00;100241.31;12201179;19;20041;-81
2023/05/04 05:00:50;;;;;;;14.13;4.18;;;;;;;10.49;76.25;100236.78;12205451;19;20070;-84
2023/05/04 05:04:53;;;;;;;6.00;3.45;;;;;;;10.54;75.41;100253.44;12174947;19;20722;-82
2023/05/04 05:08:58;;;;;;;8.50;3.25;;;;;;;10.60;75.04;100262.66;12169129;19;20010;-81
2023/05/04 05:13:00;;;;;;;9.45;3.13;;;;;;;10.62;74.75;100252.22;12203702;19;20007;-83
2023/05/04 05:17:02;;;;;;;31.43;5.03;;;;;;;10.64;74.73;100266.59;12175772;19;20003;-83
2023/05/04 05:21:04;;;;;;;;;;;;;;;10.63;74.59;100265.78;12206684;19;20003;-81
2023/05/04 05:25:07;;;;;;;8.50;3.55;;;;;;;10.67;74.19;100269.72;12203080;19;19938;-82
2023/05/04 05:29:10;;;;;;;10.70;3.97;;;;;;;10.68;75.26;100267.81;12178136;19;20623;-82
2023/05/04 05:33:12;;;;;;;7.10;3.85;;;;;;;10.76;73.97;100274.88;12198944;19;20023;-83
2023/05/04 05:37:14;;;;;;;6.45;3.60;;;;;;;10.81;73.91;100270.31;12199852;19;20014;-81
2023/05/04 05:41:16;;;;;;;7.20;3.42;;;;;;;10.88;73.53;100264.69;12178628;19;20482;-81
2023/05/04 05:45:18;;;;;;;5.38;3.20;;;;;;;10.92;73.57;100265.91;12197742;19;20041;-81
2023/05/04 05:49:21;;;;;;;5.93;4.15;;;;;;;10.95;73.18;100265.41;12200448;19;20513;-83
2023/05/04 05:53:24;;;;;;;6.57;3.45;;;;;;;10.99;73.35;100263.00;12176070;19;20469;-82
2023/05/04 05:57:26;;;;;;;4.95;3.13;;;;;;;11.02;73.37;100263.34;12224223;19;20018;-83
2023/05/04 06:01:29;;;;;;;8.18;3.80;;;;;;;11.09;72.71;100254.94;12223873;19;20011;-82
2023/05/04 06:05:32;;;;;;;10.77;4.38;;;;;;;11.14;72.55;100252.31;12226087;19;20010;-83
2023/05/04 06:09:35;;;;;;;6.03;3.75;;;;;;;11.18;73.00;100259.00;12226165;19;20018;-84
2023/05/04 06:13:37;;;;;;;6.47;3.92;;;;;;;11.31;72.24;100261.50;12225978;19;20503;-83
2023/05/04 06:17:39;;;;;;;8.68;4.65;;;;;;;11.37;71.67;100251.41;12181520;19;20014;-83
2023/05/04 06:21:40;;;;;;;9.40;4.22;;;;;;;11.53;70.57;100267.19;12178623;19;20010;-83
2023/05/04 06:25:42;;;;;;;11.00;4.25;;;;;;;11.63;69.77;100264.66;12199431;19;20375;-83
2023/05/04 06:29:45;;;;;;;8.55;4.43;;;;;;;11.79;69.39;100259.44;12199170;19;20003;-83
2023/05/04 06:33:47;;;;;;;;;;;;;;;11.88;69.52;100255.22;12178008;19;20097;-83
2023/05/04 06:37:51;;;;;;;8.32;4.25;;;;;;;11.98;69.41;100252.63;12198834;19;19927;-85
2023/05/04 06:41:57;;;;;;;8.32;4.57;;;;;;;12.09;69.07;100251.72;12196525;19;20027;-82
2023/05/04 06:46:01;;;;;;;9.95;4.57;;;;;;;12.24;68.33;100244.78;12178816;19;20023;-83
2023/05/04 06:50:08;;;;;;;9.32;4.50;;;;;;;12.39;67.69;100258.03;12198109;19;20019;-83
2023/05/04 06:54:10;;;;;;;8.02;4.35;;;;;;;12.42;67.59;100260.28;12200662;19;20014;-83
2023/05/04 06:58:12;;;;;;;12.55;4.93;;;;;;;12.43;67.81;100268.34;12175246;19;20505;-83
2023/05/04 07:02:15;;;;;;;11.55;4.82;;;;;;;12.54;67.57;100277.63;12198657;19;20002;-83
2023/05/04 07:06:17;;;;;;;;;;;;;;;12.64;67.65;100275.03;12185140;19;20451;-83
2023/05/04 07:10:19;;;;;;;8.52;4.43;;;;;;;12.83;67.36;100280.31;12206275;19;19915;-81
2023/05/04 07:14:20;;;;;;;8.55;4.57;;;;;;;12.87;67.11;100276.75;12207857;19;20483;-82
2023/05/04 07:18:22;;;;;;;10.00;5.10;;;;;;;12.98;66.77;100259.22;12181598;19;20015;-83
2023/05/04 07:22:24;;;;;;;11.38;4.22;;;;;;;13.15;66.93;100266.66;12207372;19;20003;-82
2023/05/04 07:26:26;;;;;;;8.77;4.22;;;;;;;13.45;67.64;100263.50;12232417;19;20575;-82
2023/05/04 07:30:28;;;;;;;6.70;4.43;;;;;;;13.66;67.48;100261.81;12187483;19;20034;-83
2023/05/04 07:34:30;;;;;;;8.93;4.85;;;;;;;13.89;67.22;100253.19;12207878;19;20010;-83
2023/05/04 07:38:46;;;;;;;7.80;4.60;;;;;;;14.17;66.77;100255.94;12207971;19;20047;-82
2023/05/04 07:42:48;;;;;;;7.47;5.00;;;;;;;14.37;66.12;100250.59;12188807;19;20006;-83
2023/05/04 07:46:50;;;;;;;9.43;5.32;;;;;;;14.62;65.57;100244.44;12210332;19;20480;-83
2023/05/04 07:50:52;;;;;;;8.87;4.80;;;;;;;14.88;64.51;100247.41;12210014;19;20002;-83
2023/05/04 07:54:54;;;;;;;10.98;4.60;;;;;;;15.11;64.02;100248.91;12188826;19;20017;-82
2023/05/04 07:58:56;;;;;;;9.68;4.70;;;;;;;15.36;63.97;100251.81;12208778;19;20070;-82
2023/05/04 08:02:58;;;;;;;8.73;5.45;;;;;;;15.58;63.08;100248.84;12210287;19;20039;-82
2023/05/04 08:07:00;;;;;;;8.05;5.65;;;;;;;15.83;63.19;100250.91;12188290;19;20032;-82
2023/05/04 08:11:01;;;;;;;8.75;5.20;;;;;;;16.24;61.79;100247.34;12206571;19;20023;-81
2023/05/04 08:15:20;;;;;;;8.48;5.38;;;;;;;16.55;61.12;100237.91;12185013;19;20503;-82
2023/05/04 08:19:24;;;;;;;9.15;5.63;;;;;;;16.88;59.32;100223.69;12203557;19;20032;-82
2023/05/04 08:23:26;;;;;;;11.35;5.57;;;;;;;17.17;57.95;100221.94;12206729;19;20015;-82
2023/05/04 08:27:28;;;;;;;11.53;5.63;;;;;;;17.56;57.53;100212.03;12184588;19;20006;-82
2023/05/04 08:31:29;;;;;;;9.15;5.13;;;;;;;17.81;56.97;100222.22;12206827;19;20038;-82
2023/05/04 08:35:31;;;;;;;7.97;4.60;;;;;;;17.97;56.33;100223.81;12206439;19;20002;-83
2023/05/04 08:39:33;;;;;;;9.10;5.43;;;;;;;18.20;53.72;100209.16;12188208;19;21077;-84
2023/05/04 08:43:36;;;;;;;7.93;5.40;;;;;;;18.49;53.43;100213.91;12209224;19;20013;-83
2023/05/04 08:47:41;;;;;;;8.10;5.60;;;;;;;18.76;52.96;100204.19;12207268;19;20010;-83
2023/05/04 08:51:45;;;;;;;17.30;6.90;;;;;;;18.82;51.63;100201.06;12186773;19;20007;-83
2023/05/04 08:55:50;;;;;;;8.45;5.28;;;;;;;18.81;52.14;100201.38;12210137;19;20038;-83
2023/05/04 08:59:54;;;;;;;9.55;5.43;;;;;;;18.88;51.85;100199.88;12202226;19;20003;-84
2023/05/04 09:04:00;;;;;;;7.97;5.10;;;;;;;19.29;51.58;100198.56;12185839;19;20011;-84
2023/05/04 09:08:03;;;;;;;9.15;5.53;;;;;;;19.54;50.55;100191.81;12203774;19;20038;-83
2023/05/04 09:12:05;;;;;;;9.50;5.20;;;;;;;19.51;49.38;100187.69;12205345;19;20020;-84
2023/05/04 09:16:08;;;;;;;9.35;5.32;;;;;;;19.72;49.30;100181.81;12182193;19;20010;-84
2023/05/04 09:20:10;;;;;;;9.37;6.03;;;;;;;19.78;48.63;100180.59;12199736;19;20007;-84
2023/05/04 09:24:12;;;;;;;7.95;4.78;;;;;;;19.73;47.66;100184.31;12206577;19;20015;-84
2023/05/04 09:28:15;;;;;;;9.67;5.63;;;;;;;19.79;48.38;100182.28;12183640;19;20017;-84
2023/05/04 09:32:17;;;;;;;8.00;4.97;;;;;;;19.93;47.33;100172.00;12203471;19;20486;-86
2023/05/04 09:36:20;;;;;;;8.30;5.40;;;;;;;20.07;47.14;100172.03;12183195;19;20482;-83
2023/05/04 09:40:37;;;;;;;7.07;4.78;;;;;;;20.32;47.23;100182.00;12203735;19;20006;-84
2023/05/04 09:44:39;;;;;;;7.18;5.30;;;;;;;20.38;46.36;100177.16;12204964;19;20007;-84
2023/05/04 09:48:52;;;;;;;8.82;4.65;;;;;;;20.48;46.70;100174.97;12181152;19;20014;-83
2023/05/04 09:52:55;;;;;;;8.50;4.47;;;;;;;20.67;46.08;100165.72;12204039;19;20083;-85
2023/05/04 09:57:08;;;;;;;7.88;4.90;;;;;;;20.76;45.28;100163.84;12203177;19;20026;-85
2023/05/04 10:01:11;;;;;;;7.15;4.18;;;;;;;20.97;45.86;100157.84;12179998;19;20034;-86
2023/05/04 10:05:19;;;;;;;8.10;5.20;;;;;;;21.22;44.86;100154.53;12205217;19;20010;-83
2023/05/04 10:09:22;;;;;;;5.82;4.22;;;;;;;21.45;44.88;100143.44;12182951;19;20347;-84
2023/05/04 10:13:25;;;;;;;8.00;4.57;;;;;;;21.58;43.82;100143.41;12203677;19;20014;-86
2023/05/04 10:17:41;;;;;;;7.10;4.68;;;;;;;21.65;43.69;100136.53;12200851;19;20007;-85
2023/05/04 10:21:43;;;;;;;7.30;4.68;;;;;;;21.73;42.41;100136.59;12176191;19;20031;-83
2023/05/04 10:26:00;;;;;;;10.00;5.17;;;;;;;21.90;42.96;100129.50;12202750;19;20019;-85
2023/05/04 10:30:03;;;;;;;8.85;5.50;;;;;;;22.09;41.47;100118.91;12200812;19;20002;-85
2023/05/04 10:34:06;;;;;;;9.20;4.75;;;;;;;22.28;41.03;100116.75;12175516;19;20027;-85
2023/05/04 10:38:11;;;;;;;6.05;4.50;;;;;;;22.28;41.52;100111.13;12201711;19;20028;-85
2023/05/04 10:42:13;;;;;;;8.40;5.35;;;;;;;22.41;41.13;100097.34;12207907;19;20022;-84
2023/05/04 10:46:16;;;;;;;8.30;4.73;;;;;;;22.44;41.33;100093.88;12212583;19;20014;-84
2023/05/04 10:50:18;;;;;;;8.45;4.57;;;;;;;22.63;41.55;100079.59;12213962;19;20345;-84
2023/05/04 10:54:20;;;;;;;7.22;4.47;;;;;;;22.83;40.57;100081.00;12190416;19;20051;-84
2023/05/04 10:58:27;;;;;;;8.07;4.73;;;;;;;23.09;39.89;100067.06;12210523;19;20034;-84
2023/05/04 11:02:29;;;;;;;7.82;4.80;;;;;;;23.34;40.08;100059.81;12213075;19;20006;-84
2023/05/04 11:06:34;;;;;;;7.10;5.18;;;;;;;23.39;39.58;100052.03;12189957;19;20019;-84
2023/05/04 11:10:36;;;;;;;7.50;4.43;;;;;;;23.45;39.42;100052.69;12208934;19;20002;-84
2023/05/04 11:14:41;;;;;;;5.68;3.97;;;;;;;23.54;39.50;100049.91;12213824;19;20011;-85
2023/05/04 11:18:44;;;;;;;7.93;4.57;;;;;;;23.57;39.47;100026.72;12208043;19;20078;-84
2023/05/04 11:22:46;;;;;;;8.98;4.78;;;;;;;23.97;38.32;100026.53;12226192;19;20014;-84
2023/05/04 11:26:48;;;;;;;7.68;4.43;;;;;;;24.32;37.91;100016.81;12228516;19;20017;-83
2023/05/04 11:30:50;;;;;;;8.20;4.18;;;;;;;24.43;36.67;100014.50;12201666;19;20399;-84
2023/05/04 11:34:57;;;;;;;6.28;4.13;;;;;;;24.47;37.19;100003.38;12218180;19;20007;-87
2023/05/04 11:38:59;;;;;;;6.50;4.00;;;;;;;24.71;36.29;99995.13;12217858;19;20064;-83
2023/05/04 11:43:03;;;;;;;9.18;4.05;;;;;;;25.41;36.15;99986.19;12201662;19;20235;-85
2023/05/04 11:47:06;;;;;;;7.32;3.92;;;;;;;25.95;35.16;99976.91;12220652;19;20467;-84
2023/05/04 11:51:09;;;;;;;9.52;3.80;;;;;;;26.34;35.31;99970.59;12219203;19;20022;-85
2023/05/04 11:55:28;;;;;;;6.10;3.40;;;;;;;26.87;33.11;99973.56;12201165;19;20463;-84
2023/05/04 11:59:31;;;;;;;4.25;3.22;;;;;;;27.21;33.69;99975.03;12219993;19;20006;-84
2023/05/04 12:03:36;;;;;;;5.70;3.60;;;;;;;27.72;31.13;99958.34;12197551;19;20027;-85
2023/05/04 12:07:53;;;;;;;6.45;3.00;;;;;;;28.25;29.39;99972.28;12216072;19;20074;-85
2023/05/04 12:11:57;;;;;;;5.35;2.67;;;;;;;28.61;28.38;99956.22;12215110;19;20009;-84
2023/05/04 12:16:16;;;;;;;;;;;;;;;28.71;27.48;99949.19;12197088;19;20018;-85
2023/05/04 12:20:27;;;;;;;5.35;2.97;;;;;;;29.20;26.96;99952.34;12210008;19;19928;-84
2023/05/04 12:24:28;;;;;;;5.32;3.08;;;;;;;29.56;26.85;99946.59;12186887;19;20018;-85
2023/05/04 12:33:08;;;;;;;4.18;2.70;;;;;;;30.75;24.61;99925.56;12217794;19;19911;-86
2023/05/04 12:37:20;;;;;;;4.65;2.80;;;;;;;31.50;23.15;99917.25;12198226;19;20013;-86
2023/05/04 12:41:25;;;;;;;3.67;2.72;;;;;;;32.03;22.97;99928.44;12219978;19;20014;-85
2023/05/04 12:45:27;;;;;;;4.28;2.92;;;;;;;32.55;21.64;99926.47;12197266;19;20624;-85
2023/05/04 12:49:28;;;;;;;4.30;3.00;;;;;;;32.42;21.18;99919.41;12218640;19;20032;-85
2023/05/04 12:53:31;;;;;;;3.13;2.80;;;;;;;32.96;21.51;99917.78;12218051;19;20007;-83
2023/05/04 12:57:32;;;;;;;3.65;2.67;;;;;;;33.54;21.25;99913.97;12195011;19;20002;-84
2023/05/04 13:01:34;;;;;;;4.10;3.10;;;;;;;34.08;19.54;99908.38;12215279;19;20053;-84
2023/05/04 13:05:36;;;;;;;6.68;2.72;;;;;;;34.69;19.63;99906.34;12216684;19;20006;-84
2023/05/04 13:09:39;;;;;;;5.50;3.00;;;;;;;35.03;19.33;99891.53;12194526;19;20011;-84
2023/05/04 13:13:41;;;;;;;5.13;3.00;;;;;;;35.61;19.19;99886.41;12213055;19;20027;-84
2023/05/04 13:17:43;;;;;;;3.65;3.22;;;;;;;35.66;18.27;99880.22;12212618;19;20006;-87
2023/05/04 13:21:46;;;;;;;4.30;3.15;;;;;;;35.17;18.51;99887.00;12190532;19;20007;-84
2023/05/04 13:25:49;;;;;;;5.20;3.13;;;;;;;34.76;20.20;99884.66;12209413;19;20002;-85
2023/05/04 13:29:51;;;;;;;4.70;3.53;;;;;;;34.86;20.13;99872.34;12212837;19;20007;-84
2023/05/04 13:33:53;;;;;;;7.82;3.50;;;;;;;35.08;19.68;99867.41;12189014;19;20023;-84
2023/05/04 13:37:54;;;;;;;4.22;3.42;;;;;;;35.06;20.33;99859.22;12214469;19;20034;-83
2023/05/04 13:41:56;;;;;;;3.88;3.00;;;;;;;35.45;19.42;99846.75;12215850;19;20528;-84
2023/05/04 13:46:02;;;;;;;6.78;3.67;;;;;;;36.12;19.32;99841.81;12194203;19;20015;-83
2023/05/04 13:50:05;;;;;;;3.78;2.75;;;;;;;36.25;18.35;99842.91;12218993;19;20010;-83
2023/05/04 13:54:07;;;;;;;3.97;2.90;;;;;;;35.74;18.02;99824.47;12218463;19;20007;-85
2023/05/04 13:58:08;;;;;;;7.28;3.25;;;;;;;35.82;19.11;99830.97;12197946;19;20010;-84
2023/05/04 14:02:12;;;;;;;6.32;3.78;;;;;;;36.44;18.45;99811.97;12213593;19;20011;-83
2023/05/04 14:06:14;;;;;;;3.90;3.05;;;;;;;36.62;18.38;99814.66;12208495;19;20014;-84
2023/05/04 14:10:16;;;;;;;5.43;2.85;;;;;;;36.49;18.02;99800.03;12214311;19;20059;-84
2023/05/04 14:14:20;;;;;;;3.40;2.80;;;;;;;36.10;18.05;99789.78;12213468;19;20632;-84
2023/05/04 14:18:24;;;;;;;4.10;2.92;;;;;;;35.33;18.69;99787.06;12199383;19;20007;-86
2023/05/04 14:22:26;;;;;;;3.90;2.85;;;;;;;34.09;19.59;99777.69;12222683;19;20062;-83
2023/05/04 14:26:33;;;;;;;4.97;3.50;;;;;;;32.60;20.08;99780.63;12219307;19;20010;-83
2023/05/04 14:30:35;;;;;;;4.22;3.42;;;;;;;31.08;21.05;99771.19;12200651;19;20381;-85
2023/05/04 14:34:37;;;;;;;6.88;3.10;;;;;;;29.40;23.28;99763.00;12224712;19;20010;-84
2023/05/04 14:38:39;;;;;;;4.55;2.42;;;;;;;28.97;23.46;99767.84;12224901;19;20015;-82
2023/05/04 14:42:41;;;;;;;4.28;2.60;;;;;;;28.66;23.59;99753.84;12202347;19;20486;-82
2023/05/04 14:46:43;;;;;;;4.95;2.67;;;;;;;28.58;24.48;99761.34;12221249;19;20432;-82
2023/05/04 14:50:46;;;;;;;4.38;2.70;;;;;;;28.29;24.96;99754.19;12225296;19;20007;-83
2023/05/04 14:54:48;;;;;;;6.35;2.90;;;;;;;27.79;25.20;99755.91;12205618;19;20387;-84
2023/05/04 14:58:50;;;;;;;4.13;2.33;;;;;;;27.23;25.50;99735.06;12225010;19;20048;-81
2023/05/04 15:02:51;;;;;;;4.43;2.65;;;;;;;27.21;25.88;99733.78;12220359;19;20018;-82
2023/05/04 15:06:53;;;;;;;4.35;2.42;;;;;;;27.18;26.59;99737.31;12198075;19;20018;-82
2023/05/04 15:10:58;;;;;;;4.90;2.65;;;;;;;27.01;26.29;99730.00;12218272;19;20077;-81
2023/05/04 15:15:00;;;;;;;10.30;2.80;;;;;;;26.73;26.73;99736.47;12221365;19;20006;-82
2023/05/04 15:19:02;;;;;;;4.35;2.67;;;;;;;26.57;26.98;99732.81;12199103;19;20015;-84
2023/05/04 15:23:09;;;;;;;4.38;2.53;;;;;;;26.48;27.60;99735.75;12226512;19;20083;-82
2023/05/04 15:27:11;;;;;;;4.32;2.70;;;;;;;26.74;26.89;99738.16;12214778;19;20471;-82
2023/05/04 15:31:14;;;;;;;4.80;2.58;;;;;;;26.59;27.02;99731.25;12198945;19;20031;-84
2023/05/04 15:35:16;;;;;;;3.72;2.30;;;;;;;26.81;26.99;99741.16;12224038;19;20018;-81
2023/05/04 15:39:21;;;;;;;4.18;2.70;;;;;;;27.70;25.85;99745.56;12202557;19;20478;-83
2023/05/04 15:43:23;;;;;;;6.38;2.50;;;;;;;27.70;25.79;99742.72;12224329;19;20010;-85
2023/05/04 15:47:25;;;;;;;7.07;2.55;;;;;;;27.35;26.09;99727.69;12223553;19;20087;-82
2023/05/04 15:51:28;;;;;;;3.65;2.50;;;;;;;26.97;26.22;99723.41;12201376;19;20493;-84
2023/05/04 15:55:30;;;;;;;3.95;2.65;;;;;;;26.70;26.59;99717.41;12235508;19;20038;-82
2023/05/04 15:59:33;;;;;;;4.93;2.25;;;;;;;26.60;26.69;99712.28;12236152;19;20010;-81
2023/05/04 16:03:35;;;;;;;6.22;2.40;;;;;;;26.27;26.69;99710.50;12211277;19;20010;-82
2023/05/04 16:07:38;;;;;;;5.93;2.72;;;;;;;25.90;27.35;99704.94;12229386;19;20439;-82
2023/05/04 16:11:40;;;;;;;4.10;2.50;;;;;;;25.62;27.14;99704.81;12218210;19;20364;-82
2023/05/04 16:15:42;;;;;;;4.93;2.40;;;;;;;25.61;27.21;99693.88;12197053;19;20617;-83
2023/05/04 16:19:44;;;;;;;5.53;2.47;;;;;;;25.59;27.79;99684.97;12220425;19;20026;-85
2023/05/04 16:23:47;;;;;;;5.53;2.65;;;;;;;25.43;28.29;99677.22;12219049;19;20018;-84
2023/05/04 16:27:49;;;;;;;3.70;2.55;;;;;;;25.16;28.53;99673.06;12197094;19;20022;-84
2023/05/04 16:31:51;;;;;;;4.22;2.40;;;;;;;25.03;28.66;99677.03;12223714;19;20758;-83
2023/05/04 16:35:52;;;;;;;3.90;2.67;;;;;;;24.86;29.01;99675.22;12222216;19;20475;-83
2023/05/04 16:39:55;;;;;;;4.30;2.30;;;;;;;24.67;28.71;99686.22;12196509;19;20003;-85
2023/05/04 16:43:57;;;;;;;5.35;2.30;;;;;;;24.62;29.17;99683.63;12212964;19;20514;-83
2023/05/04 16:47:59;;;;;;;4.88;2.25;;;;;;;24.43;29.48;99679.34;12215975;19;20013;-86
2023/05/04 16:52:02;;;;;;;3.83;2.53;;;;;;;24.32;29.47;99678.91;12195241;19;20010;-82
2023/05/04 16:56:04;;;;;;;4.55;2.45;;;;;;;24.26;29.74;99673.84;12227075;19;20010;-83
2023/05/04 17:00:09;;;;;;;6.72;2.80;;;;;;;24.10;30.67;99674.47;12226277;19;20107;-83
2023/05/04 17:04:11;;;;;;;5.97;2.58;;;;;;;23.90;30.58;99663.22;12201263;19;20113;-83
2023/05/04 17:08:12;;;;;;;3.95;2.75;;;;;;;23.65;31.32;99661.03;12228675;19;20022;-82
2023/05/04 17:12:14;;;;;;;5.47;2.60;;;;;;;23.42;32.58;99662.50;12221127;19;20070;-83
2023/05/04 17:16:16;;;;;;;4.07;2.40;;;;;;;23.30;32.44;99651.97;12227347;19;20267;-82
2023/05/04 17:20:18;;;;;;;4.55;2.25;;;;;;;23.16;33.06;99663.44;12221087;19;20072;-83
2023/05/04 17:24:20;;;;;;;3.63;2.25;;;;;;;23.03;33.06;99658.88;12201804;19;20022;-82
2023/05/04 17:28:22;;;;;;;3.20;2.10;;;;;;;22.94;32.70;99660.88;12219872;19;20011;-84
2023/05/04 17:32:25;;;;;;;3.75;2.42;;;;;;;22.69;33.15;99659.78;12225485;19;20260;-85
2023/05/04 17:36:27;;;;;;;4.87;2.73;;;;;;;22.59;33.74;99660.16;12202857;19;20015;-85
2023/05/04 17:40:30;;;;;;;5.95;3.47;;;;;;;22.58;34.38;99653.72;12222524;19;20437;-84
2023/05/04 17:44:32;;;;;;;5.63;2.40;;;;;;;22.73;34.41;99655.97;12221378;19;20005;-84
2023/05/04 17:48:35;;;;;;;3.80;2.67;;;;;;;22.67;34.72;99670.53;12203376;19;20468;-83
2023/05/04 17:52:37;;;;;;;4.15;2.58;;;;;;;22.51;34.72;99664.63;12226694;19;20421;-83
2023/05/04 17:56:38;;;;;;;7.27;3.10;;;;;;;22.55;34.81;99660.00;12225230;19;20621;-83
2023/05/04 18:00:41;;;;;;;6.72;3.28;;;;;;;22.38;35.86;99666.47;12205078;19;20010;-84
2023/05/04 18:04:43;;;;;;;4.67;2.90;;;;;;;22.14;36.36;99674.53;12219686;19;20003;-83
2023/05/04 18:08:44;;;;;;;4.77;2.50;;;;;;;21.89;36.71;99681.78;12215407;19;20755;-84
2023/05/04 18:12:46;;;;;;;4.37;2.40;;;;;;;21.63;37.85;99684.56;12190866;19;20014;-83
2023/05/04 18:16:48;;;;;;;5.33;2.50;;;;;;;21.28;38.47;99676.84;12201630;19;19999;-84
2023/05/04 18:20:51;;;;;;;7.53;3.03;;;;;;;20.96;39.42;99680.00;12190184;19;20251;-84
2023/05/04 18:24:52;;;;;;;;;;;;;;;20.60;39.75;99690.19;12216467;19;20348;-84
2023/05/04 18:28:57;;;;;;;6.35;2.45;;;;;;;20.31;41.12;99687.81;12216528;19;19915;-83
2023/05/04 18:33:18;;;;;;;5.40;2.22;;;;;;;19.98;41.81;99687.22;12199916;19;20014;-83
2023/05/04 18:37:20;;;;;;;5.40;2.23;;;;;;;19.69;42.60;99684.78;12220155;19;20058;-84
2023/05/04 18:41:22;;;;;;;;;;;;;;;19.40;43.20;99693.53;12207402;19;20400;-85
2023/05/04 18:45:24;;;;;;;4.45;2.10;;;;;;;19.13;43.85;99701.59;12216730;19;19915;-84
2023/05/04 18:49:28;;;;;;;3.35;2.20;;;;;;;18.85;45.27;99702.69;12216666;19;20018;-85